首页
METAR-TAF:

METAR-TAF

机场 :

侯赛因国王国际机场

亞喀巴, 约旦

纬度: 29-38N, 经度: 035-01E, 海拔: 53米

当前天气观测

该预报发布于1小时和4分钟前的08:00 UTC
风速12节,风向
温度 25°C
湿度 39%
气压 1018 hPa
能見度: 8000

METAR: OJAQ 220800Z 01012KT 8000 NSC 25/10 Q1018 NOSIG

时间: 12:04 (09:04 UTC)

预报

该预报发布于4小时和4分钟前的05:00 UTC
预报有效从22日的 06点(UTC)到 23日的 12点(UTC)
风速10节,风向
能見度: 6000
几率 40% :
短暂存在
从 22日的 09点(UTC)到 22日的 18点(UTC)
风速20节,风向
能見度: 3000
高吹尘,

TAF: OJAQ 220500Z 2206/2312 36010KT 6000 NSC PROB40 TEMPO 2209/2218 35020KT 3000 BLDU

超过4000个机场的气象观测和天气预报(METAR&TAF报告)。

可查询的气象台以黄色和红色小点在地图上表示。

将鼠标移到小点上方,可查看气象台名称。

然后点击查看天气观测和预报。

如需切换地图:点击带黑十字的绿色按钮放大地图;点击带横线的绿色按钮缩小地图;或者点击绿色箭头查看邻近地区的地图。


METAR-TAF: